Time;durP1;ratioP1;P1;durP2;ratioP2;P2;SDS_P1;SDS_P2;PMS_P1;PMS_P2;Temp;Humidity;BMP_temperature;BMP_pressure;BME280_temperature;BME280_humidity;BME280_pressure;Samples;Min_cycle;Max_cycle;Signal;HPM_P1;HPM_P2
2023/08/21 00:00:14;;;;;;;7.90;4.60;;;;;;;25.85;100.00;100693.63;5031972;28;20419;-73
2023/08/21 00:02:39;;;;;;;7.43;4.30;;;;;;;25.92;100.00;100765.16;5014106;28;20567;-73
2023/08/21 00:05:06;;;;;;;5.40;4.18;;;;;;;26.13;100.00;100745.22;5014514;28;20029;-72
2023/08/21 00:07:31;;;;;;;7.30;4.00;;;;;;;25.39;100.00;100678.16;5014046;28;20026;-72
2023/08/21 00:09:56;;;;;;;7.97;4.18;;;;;;;25.57;100.00;100732.25;5040827;28;20140;-72
2023/08/21 00:12:22;;;;;;;7.40;4.25;;;;;;;25.81;100.00;100755.56;5051623;28;20399;-73
2023/08/21 00:14:47;;;;;;;5.63;4.13;;;;;;;26.08;100.00;100760.41;5051661;28;20041;-73
2023/08/21 00:17:13;;;;;;;7.65;4.43;;;;;;;26.14;100.00;100754.72;5033455;28;20035;-73
2023/08/21 00:19:38;;;;;;;5.75;4.25;;;;;;;25.72;100.00;100759.75;5051395;28;20119;-73
2023/08/21 00:22:04;;;;;;;9.73;4.07;;;;;;;25.50;100.00;100725.88;5051316;28;20037;-73
2023/08/21 00:24:29;;;;;;;8.82;4.57;;;;;;;25.71;100.00;100726.00;5051594;28;20033;-72
2023/08/21 00:26:54;;;;;;;5.03;3.70;;;;;;;25.45;100.00;100719.38;5051564;28;20146;-72
2023/08/21 00:29:20;;;;;;;8.65;3.80;;;;;;;25.82;100.00;100772.03;5051290;28;20496;-72
2023/08/21 00:31:45;;;;;;;8.65;3.90;;;;;;;25.88;100.00;100745.50;5032834;28;20029;-72
2023/08/21 00:34:11;;;;;;;6.40;3.97;;;;;;;25.79;100.00;100779.16;5051746;28;20067;-73
2023/08/21 00:36:36;;;;;;;9.13;4.53;;;;;;;25.84;100.00;100731.88;5051622;28;20033;-72
2023/08/21 00:39:02;;;;;;;6.97;3.80;;;;;;;25.89;100.00;100768.81;5051857;28;20040;-73
2023/08/21 00:41:27;;;;;;;8.05;3.75;;;;;;;25.73;100.00;100766.59;5051664;28;20527;-73
2023/08/21 00:43:53;;;;;;;10.07;4.20;;;;;;;25.22;100.00;100715.06;5033289;28;20082;-73
2023/08/21 00:46:18;;;;;;;7.43;3.83;;;;;;;25.54;100.00;100782.00;5033348;28;20404;-73
2023/08/21 00:48:44;;;;;;;7.28;4.05;;;;;;;25.39;100.00;100709.41;5051185;28;20040;-73
2023/08/21 00:51:11;;;;;;;8.38;3.70;;;;;;;25.51;100.00;100718.91;5051398;28;20064;-73
2023/08/21 00:53:38;;;;;;;6.82;3.90;;;;;;;25.56;100.00;100780.13;5051055;28;20044;-73
2023/08/21 00:56:03;;;;;;;6.97;3.60;;;;;;;25.80;100.00;100759.13;5051204;28;20025;-72
2023/08/21 00:58:29;;;;;;;7.00;3.80;;;;;;;26.16;100.00;100709.31;5051103;28;20047;-73
2023/08/21 01:00:55;;;;;;;7.13;3.92;;;;;;;26.10;100.00;100725.47;5033823;28;20060;-73
2023/08/21 01:03:20;;;;;;;10.48;4.07;;;;;;;26.29;100.00;100693.47;5033212;28;20032;-73
2023/08/21 01:05:46;;;;;;;6.28;3.55;;;;;;;26.35;100.00;100699.03;5050792;28;20060;-73
2023/08/21 01:08:18;;;;;;;9.98;4.18;;;;;;;26.24;100.00;100680.00;5050990;28;20488;-73
2023/08/21 01:10:58;;;;;;;4.95;3.92;;;;;;;26.45;100.00;100710.38;5050889;28;20154;-73
2023/08/21 01:13:50;;;;;;;6.97;4.03;;;;;;;26.41;100.00;100739.44;5050569;28;20033;-73
2023/08/21 01:16:16;;;;;;;;;;;;;;;26.39;100.00;100733.53;5047574;28;20047;-73
2023/08/21 01:18:43;;;;;;;5.90;3.90;;;;;;;26.37;100.00;100723.22;5051330;28;20369;-73
2023/08/21 01:21:09;;;;;;;6.18;4.22;;;;;;;26.01;100.00;100681.03;5050995;28;20041;-73
2023/08/21 01:23:38;;;;;;;5.35;3.83;;;;;;;26.18;100.00;100759.56;5050802;28;20415;-72
2023/08/21 01:26:04;;;;;;;5.53;3.85;;;;;;;26.16;100.00;100685.00;5050151;28;20037;-72
2023/08/21 01:28:32;;;;;;;6.97;4.22;;;;;;;26.32;100.00;100708.91;5050360;28;20033;-72
2023/08/21 01:31:05;;;;;;;8.82;3.97;;;;;;;26.20;100.00;100689.88;5050803;28;20029;-72
2023/08/21 01:33:34;;;;;;;6.35;4.10;;;;;;;26.26;100.00;100728.50;5050844;28;20035;-72
2023/08/21 01:36:03;;;;;;;7.32;4.07;;;;;;;25.89;100.00;100680.22;5050704;28;20029;-72
2023/08/21 01:38:33;;;;;;;7.10;4.15;;;;;;;26.41;100.00;100729.00;5050699;28;20025;-71
2023/08/21 01:40:58;;;;;;;7.28;3.78;;;;;;;26.45;100.00;100733.03;5050425;28;20025;-71
2023/08/21 01:43:24;;;;;;;6.05;4.20;;;;;;;26.42;100.00;100730.69;5050686;28;20029;-72
2023/08/21 01:45:49;;;;;;;6.70;4.35;;;;;;;25.98;100.00;100642.16;5050596;28;20391;-72
2023/08/21 01:48:15;;;;;;;9.48;4.45;;;;;;;26.38;100.00;100735.31;5050660;28;20083;-72
2023/08/21 01:50:40;;;;;;;7.82;4.32;;;;;;;26.23;100.00;100759.19;5050377;28;20037;-71
2023/08/21 01:53:06;;;;;;;6.80;4.00;;;;;;;26.08;100.00;100752.59;5032292;28;20056;-73
2023/08/21 01:55:32;;;;;;;6.60;4.13;;;;;;;26.00;100.00;100775.81;5032107;28;20404;-74
2023/08/21 01:57:57;;;;;;;7.15;4.22;;;;;;;26.06;100.00;100744.03;5050602;28;20032;-71
2023/08/21 02:00:23;;;;;;;8.68;4.40;;;;;;;25.62;100.00;100726.69;5050422;28;20029;-72
2023/08/21 02:02:48;;;;;;;5.88;4.25;;;;;;;25.87;100.00;100699.56;5049867;28;20128;-73
2023/08/21 02:05:13;;;;;;;6.13;4.22;;;;;;;25.43;100.00;100726.50;5050193;28;20029;-73
2023/08/21 02:07:39;;;;;;;5.88;4.53;;;;;;;25.70;100.00;100706.91;5053977;28;20025;-73
2023/08/21 02:10:05;;;;;;;9.93;4.38;;;;;;;25.69;100.00;100766.97;5035729;28;20466;-72
2023/08/21 02:12:31;;;;;;;8.70;4.57;;;;;;;25.59;100.00;100779.06;5054196;28;20040;-72
2023/08/21 02:14:56;;;;;;;7.82;4.32;;;;;;;26.17;100.00;100741.41;5054156;28;20036;-72
2023/08/21 02:17:21;;;;;;;7.60;4.38;;;;;;;26.52;100.00;100736.81;5054018;28;20025;-72
2023/08/21 02:19:47;;;;;;;9.90;4.30;;;;;;;26.47;100.00;100658.06;5036319;28;20486;-73
2023/08/21 02:22:12;;;;;;;8.60;4.07;;;;;;;26.54;100.00;100656.63;5055128;28;20567;-72
2023/08/21 02:24:38;;;;;;;4.80;4.07;;;;;;;26.80;100.00;100723.13;5073506;28;20024;-73
2023/08/21 02:27:03;;;;;;;10.52;4.10;;;;;;;26.95;100.00;100723.63;5074023;28;20021;-73
2023/08/21 02:29:29;;;;;;;9.05;4.38;;;;;;;26.88;100.00;100714.69;5056265;28;20064;-73
2023/08/21 02:31:54;;;;;;;12.63;4.15;;;;;;;26.89;100.00;100719.78;5069941;28;20124;-72
2023/08/21 02:34:20;;;;;;;11.13;4.72;;;;;;;26.87;100.00;100716.47;5053600;28;20044;-73
2023/08/21 02:36:45;;;;;;;7.55;3.95;;;;;;;26.55;100.00;100664.31;5054002;28;20033;-73
2023/08/21 02:39:10;;;;;;;6.38;4.22;;;;;;;26.54;100.00;100661.84;5053430;28;20071;-80
2023/08/21 02:41:36;;;;;;;10.02;4.70;;;;;;;26.74;100.00;100723.63;5053703;28;20116;-73
2023/08/21 02:44:01;;;;;;;8.77;3.97;;;;;;;26.44;100.00;100666.97;5035891;28;20124;-74
2023/08/21 02:46:27;;;;;;;7.18;3.90;;;;;;;26.68;100.00;100731.97;5067636;28;20035;-73
2023/08/21 02:48:52;;;;;;;6.10;4.57;;;;;;;26.73;100.00;100734.22;5053504;28;20025;-73
2023/08/21 02:51:17;;;;;;;9.55;4.55;;;;;;;26.46;100.00;100662.44;5035750;28;20071;-74
2023/08/21 02:53:43;;;;;;;6.88;4.30;;;;;;;26.35;100.00;100683.38;5055531;28;20522;-73
2023/08/21 02:56:08;;;;;;;6.18;4.10;;;;;;;26.66;100.00;100726.06;5060014;28;20025;-74
2023/08/21 02:58:34;;;;;;;8.40;4.68;;;;;;;26.58;100.00;100718.84;5053733;28;20458;-74
2023/08/21 03:00:59;;;;;;;5.43;4.40;;;;;;;26.08;100.00;100688.25;5053286;28;20483;-73
2023/08/21 03:03:25;;;;;;;7.60;4.70;;;;;;;26.43;100.00;100729.72;5052629;28;20064;-74
2023/08/21 03:05:50;;;;;;;8.00;4.25;;;;;;;26.03;100.00;100671.31;5073549;28;20036;-74
2023/08/21 03:08:16;;;;;;;8.85;4.50;;;;;;;26.51;100.00;100722.09;5072972;28;20024;-74
2023/08/21 03:10:42;;;;;;;7.45;4.50;;;;;;;26.37;100.00;100719.78;5073360;28;20049;-73
2023/08/21 03:13:07;;;;;;;7.70;4.50;;;;;;;25.94;100.00;100688.50;5051029;28;20094;-74
2023/08/21 03:15:34;;;;;;;7.55;4.25;;;;;;;26.23;100.00;100736.53;5052953;28;20040;-73
2023/08/21 03:18:00;;;;;;;6.18;4.25;;;;;;;26.22;100.00;100752.31;5042982;28;20130;-73
2023/08/21 03:20:25;;;;;;;6.30;4.50;;;;;;;26.36;100.00;100726.78;5052351;28;20033;-73
2023/08/21 03:22:51;;;;;;;10.40;4.57;;;;;;;26.26;100.00;100733.72;5055382;28;20025;-73
2023/08/21 03:25:16;;;;;;;7.95;4.50;;;;;;;26.29;100.00;100750.88;5052053;28;20060;-73
2023/08/21 03:27:44;;;;;;;7.88;4.55;;;;;;;25.85;100.00;100646.72;5052932;28;20135;-73
2023/08/21 03:30:10;;;;;;;9.50;4.50;;;;;;;26.18;100.00;100688.31;5053122;28;20032;-73
2023/08/21 03:32:35;;;;;;;9.75;4.47;;;;;;;26.20;100.00;100705.50;5055310;28;20506;-74
2023/08/21 03:35:01;;;;;;;7.95;4.60;;;;;;;26.11;100.00;100680.16;5067937;28;20024;-72
2023/08/21 03:37:26;;;;;;;8.52;5.00;;;;;;;26.35;100.00;100750.38;5054285;28;20124;-74
2023/08/21 03:39:51;;;;;;;6.20;4.68;;;;;;;26.65;100.00;100732.22;5072436;28;20035;-74
2023/08/21 03:42:17;;;;;;;10.80;4.78;;;;;;;26.40;100.00;100693.44;5054574;28;20063;-73
2023/08/21 03:44:43;;;;;;;8.00;4.45;;;;;;;26.76;100.00;100728.75;5075026;28;20033;-72
2023/08/21 03:47:08;;;;;;;6.93;4.78;;;;;;;26.59;100.00;100706.63;5072441;28;20032;-74
2023/08/21 03:49:33;;;;;;;8.63;5.07;;;;;;;26.46;100.00;100716.44;5072019;28;20028;-72
2023/08/21 03:51:59;;;;;;;9.00;4.78;;;;;;;26.62;100.00;100733.28;5060655;28;20029;-72
2023/08/21 03:54:24;;;;;;;7.53;4.82;;;;;;;26.27;100.00;100764.03;5056514;28;20033;-73
2023/08/21 03:56:50;;;;;;;9.00;5.10;;;;;;;26.13;100.00;100703.50;5046575;28;20475;-73
2023/08/21 03:59:15;;;;;;;7.07;4.63;;;;;;;26.52;100.00;100747.25;5072242;28;20036;-76
2023/08/21 04:01:41;;;;;;;10.30;4.97;;;;;;;26.32;100.00;100695.84;5061719;28;20037;-74
2023/08/21 04:04:06;;;;;;;12.10;5.18;;;;;;;26.57;100.00;100665.00;5052270;28;20108;-75
2023/08/21 04:06:31;;;;;;;6.75;4.75;;;;;;;26.42;100.00;100627.13;5059390;28;20077;-72
2023/08/21 04:08:57;;;;;;;6.28;4.80;;;;;;;27.03;100.00;100714.22;5052131;28;20411;-76
2023/08/21 04:11:22;;;;;;;6.85;4.90;;;;;;;26.73;100.00;100671.56;5052282;28;20053;-76
2023/08/21 04:13:48;;;;;;;8.13;4.70;;;;;;;26.89;100.00;100688.44;5051591;28;20256;-72
2023/08/21 04:16:13;;;;;;;9.43;4.82;;;;;;;27.04;100.00;100728.09;5034167;28;20033;-74
2023/08/21 04:18:39;;;;;;;7.22;5.07;;;;;;;27.05;100.00;100707.06;5051764;28;20032;-73
2023/08/21 04:21:04;;;;;;;11.07;5.10;;;;;;;26.76;100.00;100658.28;5057572;28;20036;-74
2023/08/21 04:23:30;;;;;;;8.85;5.03;;;;;;;27.10;100.00;100712.72;5056269;28;20813;-74
2023/08/21 04:26:02;;;;;;;13.82;5.68;;;;;;;27.27;100.00;100725.19;5068132;28;20479;-74
2023/08/21 04:28:29;;;;;;;8.13;5.50;;;;;;;27.19;100.00;100717.19;5071370;28;20027;-74
2023/08/21 04:30:57;;;;;;;8.20;5.47;;;;;;;26.99;100.00;100673.66;5071771;28;20055;-71
2023/08/21 04:33:24;;;;;;;10.05;6.00;;;;;;;27.38;100.00;100721.69;5071825;28;20052;-76
2023/08/21 04:35:49;;;;;;;14.35;5.07;;;;;;;27.50;100.00;100719.78;5070239;28;20113;-72
2023/08/21 04:38:14;;;;;;;11.70;5.47;;;;;;;27.47;100.00;100725.28;5065248;28;20111;-72
2023/08/21 04:40:40;;;;;;;9.70;5.15;;;;;;;27.54;100.00;100716.78;5050985;28;20638;-72
2023/08/21 04:43:05;;;;;;;7.72;5.22;;;;;;;27.05;100.00;100635.75;5051565;28;20032;-72
2023/08/21 04:45:30;;;;;;;9.45;4.68;;;;;;;27.50;100.00;100699.72;5062355;28;20036;-70
2023/08/21 04:47:56;;;;;;;11.50;5.40;;;;;;;27.61;100.00;100731.00;5050178;28;20560;-70
2023/08/21 04:50:21;;;;;;;10.27;5.35;;;;;;;27.78;100.00;100726.88;5071458;28;20024;-72
2023/08/21 04:52:48;;;;;;;7.13;5.40;;;;;;;27.71;100.00;100723.97;5054494;28;20475;-75
2023/08/21 04:55:14;;;;;;;10.98;4.88;;;;;;;27.95;100.00;100721.06;5053648;28;20040;-75
2023/08/21 04:57:39;;;;;;;15.60;5.32;;;;;;;27.98;100.00;100721.59;5071410;28;20040;-76
2023/08/21 05:00:05;;;;;;;8.73;5.57;;;;;;;28.15;100.00;100702.59;5072292;28;20482;-76
2023/08/21 05:02:31;;;;;;;8.30;5.60;;;;;;;28.32;100.00;100700.28;5072354;28;20078;-75
2023/08/21 05:04:56;;;;;;;12.70;5.50;;;;;;;28.33;100.00;100699.31;5071854;28;20013;-75
2023/08/21 05:07:22;;;;;;;8.25;5.28;;;;;;;28.51;100.00;100721.19;5071159;28;20560;-75
2023/08/21 05:09:47;;;;;;;11.63;6.05;;;;;;;28.39;100.00;100676.03;5071270;28;20123;-76
2023/08/21 05:12:12;;;;;;;9.43;6.63;;;;;;;28.92;100.00;100698.13;5071754;28;20027;-76
2023/08/21 05:14:38;;;;;;;10.70;6.38;;;;;;;28.62;100.00;100655.63;5071821;28;20036;-75
2023/08/21 05:17:04;;;;;;;9.45;6.38;;;;;;;28.70;100.00;100640.84;5071868;28;20017;-75
2023/08/21 05:19:29;;;;;;;7.93;5.88;;;;;;;28.96;100.00;100641.88;5072395;28;20036;-74
2023/08/21 05:21:54;;;;;;;9.75;6.82;;;;;;;29.00;100.00;100706.09;5071418;28;20384;-76
2023/08/21 05:24:20;;;;;;;8.50;6.20;;;;;;;29.03;100.00;100697.13;5071797;28;20029;-76
2023/08/21 05:26:45;;;;;;;10.65;5.88;;;;;;;28.96;100.00;100644.47;5073768;28;20028;-77
2023/08/21 05:29:11;;;;;;;10.70;5.80;;;;;;;29.47;100.00;100679.88;5075044;28;20028;-77
2023/08/21 05:31:36;;;;;;;9.00;5.88;;;;;;;29.64;100.00;100679.06;5073617;28;20128;-76
2023/08/21 05:34:01;;;;;;;10.60;5.70;;;;;;;29.49;100.00;100635.97;5071730;28;20082;-77
2023/08/21 05:36:27;;;;;;;7.78;5.22;;;;;;;29.42;100.00;100648.00;5072140;28;20032;-76
2023/08/21 05:38:52;;;;;;;8.00;5.82;;;;;;;29.83;100.00;100631.78;5072033;28;20502;-77
2023/08/21 05:41:18;;;;;;;8.18;5.60;;;;;;;29.95;100.00;100646.28;5073537;28;20037;-77
2023/08/21 05:43:45;;;;;;;6.95;5.50;;;;;;;30.07;100.00;100687.06;5058458;28;20033;-76
2023/08/21 05:46:11;;;;;;;7.60;5.53;;;;;;;30.26;100.00;100665.91;5076104;28;20028;-77
2023/08/21 05:48:36;;;;;;;11.15;5.72;;;;;;;29.98;100.00;100622.38;5075294;28;20033;-77
2023/08/21 05:51:03;;;;;;;8.73;5.45;;;;;;;30.60;100.00;100661.59;5074984;28;20036;-74
2023/08/21 05:53:28;;;;;;;10.43;5.90;;;;;;;30.14;100.00;100582.31;5075671;28;20487;-77
2023/08/21 05:55:54;;;;;;;12.07;5.53;;;;;;;30.65;100.00;100653.25;5075898;28;20089;-79
2023/08/21 05:58:20;;;;;;;10.98;5.53;;;;;;;31.02;100.00;100613.59;5075780;28;20415;-77
2023/08/21 06:00:46;;;;;;;8.80;5.60;;;;;;;31.14;100.00;100657.81;5075239;28;20491;-78
2023/08/21 06:03:12;;;;;;;10.57;5.65;;;;;;;31.31;100.00;100650.81;5075219;28;20029;-80
2023/08/21 06:05:37;;;;;;;11.77;5.88;;;;;;;30.82;100.00;100626.13;5074906;28;20033;-76
2023/08/21 06:08:03;;;;;;;7.60;5.90;;;;;;;31.29;100.00;100635.19;5075046;28;20033;-78
2023/08/21 06:10:28;;;;;;;7.60;5.32;;;;;;;31.40;100.00;100594.66;5074490;28;20056;-78
2023/08/21 06:12:53;;;;;;;7.75;5.40;;;;;;;31.26;100.00;100611.84;5075353;28;20021;-80
2023/08/21 06:15:19;;;;;;;11.18;5.13;;;;;;;31.63;100.00;100584.34;5075814;28;20067;-82
2023/08/21 06:17:44;;;;;;;10.85;5.55;;;;;;;31.72;100.00;100628.91;5075704;28;20032;-80
2023/08/21 06:20:10;;;;;;;12.23;5.70;;;;;;;31.92;100.00;100587.34;5074782;28;20025;-81
2023/08/21 06:22:36;;;;;;;8.75;5.85;;;;;;;32.54;100.00;100614.78;5057889;28;20024;-77
2023/08/21 06:25:02;;;;;;;10.15;5.43;;;;;;;32.05;100.00;100591.09;5075171;28;20031;-77
2023/08/21 06:27:27;;;;;;;9.35;5.10;;;;;;;32.29;100.00;100585.81;5075162;28;20044;-77
2023/08/21 06:29:53;;;;;;;7.80;5.10;;;;;;;32.53;100.00;100632.38;5074745;28;20040;-75
2023/08/21 06:32:18;;;;;;;7.40;4.90;;;;;;;32.54;100.00;100625.31;5056933;28;20032;-75
2023/08/21 06:34:44;;;;;;;9.43;5.50;;;;;;;32.60;100.00;100569.31;5073925;28;20028;-75
2023/08/21 06:37:09;;;;;;;11.35;5.57;;;;;;;33.04;100.00;100563.38;5074862;28;20028;-76
2023/08/21 06:39:34;;;;;;;11.10;5.78;;;;;;;32.89;100.00;100625.69;5056842;28;20040;-74
2023/08/21 06:42:00;;;;;;;9.98;5.90;;;;;;;33.38;100.00;100599.94;5074016;28;20158;-76
2023/08/21 06:44:26;;;;;;;16.27;6.50;;;;;;;32.92;100.00;100532.28;5074541;28;20030;-76
2023/08/21 06:46:51;;;;;;;12.23;6.20;;;;;;;33.22;100.00;100602.66;5074213;28;20032;-73
2023/08/21 06:49:17;;;;;;;8.93;5.60;;;;;;;33.19;100.00;100592.47;5073838;28;20028;-74
2023/08/21 06:51:43;;;;;;;12.45;5.40;;;;;;;33.11;100.00;100555.59;5074077;28;20461;-74
2023/08/21 06:54:08;;;;;;;13.43;5.78;;;;;;;33.49;100.00;100541.53;5074290;28;20115;-73
2023/08/21 06:56:33;;;;;;;8.50;5.32;;;;;;;33.47;100.00;100598.06;5056282;28;20025;-74
2023/08/21 06:58:59;;;;;;;9.40;5.55;;;;;;;33.39;100.00;100550.63;5074171;28;20020;-74
2023/08/21 07:01:25;;;;;;;10.15;5.32;;;;;;;34.06;100.00;100577.03;5073886;28;20039;-75
2023/08/21 07:03:50;;;;;;;7.07;4.88;;;;;;;33.71;100.00;100571.53;5074016;28;20025;-75
2023/08/21 07:06:16;;;;;;;11.68;5.47;;;;;;;34.07;100.00;100568.09;5074207;28;20509;-75
2023/08/21 07:08:42;;;;;;;9.32;5.10;;;;;;;33.95;100.00;100589.81;5062378;28;20025;-74
2023/08/21 07:11:09;;;;;;;10.38;4.97;;;;;;;34.13;100.00;100598.25;5053926;28;20128;-74
2023/08/21 07:13:35;;;;;;;7.35;5.00;;;;;;;34.02;100.00;100553.78;5054339;28;20021;-74
2023/08/21 07:16:05;;;;;;;9.98;5.30;;;;;;;34.38;100.00;100564.50;5053620;28;20044;-74
2023/08/21 07:18:33;;;;;;;13.60;5.47;;;;;;;34.61;100.00;100566.06;5053263;28;20091;-74
2023/08/21 07:21:00;;;;;;;13.88;5.63;;;;;;;34.12;100.00;100586.06;5053698;28;20037;-74
2023/08/21 07:23:25;;;;;;;10.93;4.80;;;;;;;35.00;100.00;100565.78;5035842;28;20064;-75
2023/08/21 07:25:51;;;;;;;6.38;4.82;;;;;;;34.88;100.00;100549.50;5053099;28;20033;-76
2023/08/21 07:28:16;;;;;;;9.02;4.57;;;;;;;35.03;100.00;100509.84;5053660;28;20033;-75
2023/08/21 07:30:42;;;;;;;9.27;4.82;;;;;;;34.71;100.00;100495.22;5053822;28;20530;-74
2023/08/21 07:33:08;;;;;;;10.55;5.15;;;;;;;35.25;100.00;100490.34;5053396;28;20423;-75
2023/08/21 07:35:33;;;;;;;11.15;4.72;;;;;;;35.19;100.00;100506.97;5035744;28;20033;-75
2023/08/21 07:37:59;;;;;;;9.77;4.70;;;;;;;35.17;100.00;100503.69;5053437;28;20037;-74
2023/08/21 07:40:24;;;;;;;7.75;4.78;;;;;;;34.87;100.00;100547.06;5062298;28;20028;-73
2023/08/21 07:42:50;;;;;;;11.00;4.80;;;;;;;35.07;100.00;100545.50;5072586;28;20020;-75
2023/08/21 07:45:16;;;;;;;6.43;4.30;;;;;;;35.22;100.00;100474.81;5072146;28;20029;-74
2023/08/21 07:47:41;;;;;;;8.23;3.83;;;;;;;35.44;100.00;100447.34;5072980;28;20047;-74
2023/08/21 07:50:07;;;;;;;5.15;3.63;;;;;;;35.86;100.00;100495.94;5055372;28;20470;-74
2023/08/21 07:52:34;;;;;;;7.97;3.75;;;;;;;35.56;100.00;100453.78;5073326;28;20032;-74
2023/08/21 07:55:00;;;;;;;7.75;3.60;;;;;;;35.91;100.00;100398.19;5073003;28;20032;-74
2023/08/21 07:57:30;;;;;;;6.47;4.00;;;;;;;36.11;100.00;100486.56;5073083;28;20086;-74
2023/08/21 07:59:55;;;;;;;5.85;3.80;;;;;;;35.92;100.00;100429.81;5072963;28;20032;-75
2023/08/21 08:02:21;;;;;;;6.07;3.30;;;;;;;36.22;100.00;100472.75;5073184;28;20460;-75
2023/08/21 08:04:47;;;;;;;7.20;3.47;;;;;;;36.42;100.00;100453.31;5072473;28;20027;-75
2023/08/21 08:07:12;;;;;;;8.93;4.60;;;;;;;36.85;100.00;100461.78;5073432;28;20036;-75
2023/08/21 08:09:38;;;;;;;8.13;3.90;;;;;;;36.56;100.00;100459.47;5072968;28;20500;-74
2023/08/21 08:12:03;;;;;;;8.88;3.20;;;;;;;36.58;100.00;100367.31;5054951;28;20032;-75
2023/08/21 08:14:29;;;;;;;11.68;3.72;;;;;;;37.23;100.00;100446.16;5072509;28;20067;-77
2023/08/21 08:16:54;;;;;;;7.80;3.40;;;;;;;36.75;100.00;100436.66;5072450;28;20081;-76
2023/08/21 08:19:20;;;;;;;4.93;3.53;;;;;;;36.53;100.00;100468.63;5072632;28;20031;-74
2023/08/21 08:21:45;;;;;;;7.75;3.20;;;;;;;36.52;100.00;100461.72;5072762;28;20083;-75
2023/08/21 08:24:12;;;;;;;9.82;3.70;;;;;;;36.70;100.00;100434.63;5072710;28;20541;-75
2023/08/21 08:26:38;;;;;;;7.25;3.35;;;;;;;37.62;100.00;100408.19;5072141;28;20086;-77
2023/08/21 08:29:04;;;;;;;6.45;3.42;;;;;;;36.92;100.00;100441.44;5072441;28;20055;-76
2023/08/21 08:31:30;;;;;;;8.20;3.40;;;;;;;36.91;100.00;100391.22;5072768;28;20032;-78
2023/08/21 08:33:56;;;;;;;8.13;3.38;;;;;;;37.17;100.00;100400.03;5072802;28;20028;-78
2023/08/21 08:36:22;;;;;;;6.63;2.10;;;;;;;36.84;96.42;100362.03;5055020;28;20040;-76
2023/08/21 08:38:47;;;;;;;7.93;2.97;;;;;;;37.54;99.32;100398.56;5072701;28;20463;-78
2023/08/21 08:41:30;;;;;;;8.07;2.30;;;;;;;37.03;91.63;100403.69;5072635;28;20085;-78
2023/08/21 08:43:58;;;;;;;6.93;2.45;;;;;;;37.27;94.12;100407.56;5072312;28;20028;-74
2023/08/21 08:46:25;;;;;;;5.35;2.90;;;;;;;38.14;92.23;100366.34;5072555;28;20024;-75
2023/08/21 08:48:54;;;;;;;4.88;2.30;;;;;;;37.49;89.97;100349.78;5072265;28;20028;-76
2023/08/21 08:51:19;;;;;;;7.03;2.78;;;;;;;37.72;92.21;100332.34;5071615;28;20028;-75
2023/08/21 08:53:45;;;;;;;7.55;2.30;;;;;;;37.15;88.84;100372.88;5071873;28;20040;-73
2023/08/21 08:56:10;;;;;;;6.38;2.00;;;;;;;36.81;83.80;100362.44;5072084;28;20028;-75
2023/08/21 08:58:36;;;;;;;4.78;1.90;;;;;;;37.64;86.19;100321.16;5071726;28;20039;-75
2023/08/21 09:01:01;;;;;;;6.78;1.90;;;;;;;37.16;86.06;100355.13;5071537;28;20115;-74
2023/08/21 09:03:28;;;;;;;8.98;2.20;;;;;;;37.66;88.59;100338.47;5071884;28;20380;-75
2023/08/21 09:05:53;;;;;;;4.45;2.63;;;;;;;37.68;86.75;100368.31;5071909;28;20060;-75
2023/08/21 09:08:19;;;;;;;7.65;2.45;;;;;;;37.38;88.73;100337.16;5071757;28;20474;-75
2023/08/21 09:10:45;;;;;;;7.30;2.70;;;;;;;37.76;87.58;100332.72;5071808;28;20047;-74
2023/08/21 09:13:16;;;;;;;5.22;2.55;;;;;;;37.84;89.27;100380.34;5070888;28;20029;-74
2023/08/21 09:15:53;;;;;;;4.30;2.30;;;;;;;37.51;87.17;100348.56;5071202;28;20028;-74
2023/08/21 09:18:19;;;;;;;5.68;2.30;;;;;;;37.52;86.09;100397.16;5071127;28;20056;-72
2023/08/21 09:20:44;;;;;;;4.55;2.28;;;;;;;38.17;88.22;100389.03;5071066;28;20070;-73
2023/08/21 09:23:17;;;;;;;4.20;2.45;;;;;;;38.18;88.28;100382.66;5071572;28;20029;-75
2023/08/21 09:25:48;;;;;;;6.00;2.65;;;;;;;37.94;87.56;100381.53;5071628;28;20036;-74
2023/08/21 09:28:17;;;;;;;5.53;2.58;;;;;;;37.37;88.28;100309.78;5071939;28;20093;-74
2023/08/21 09:30:53;;;;;;;4.55;2.13;;;;;;;37.78;86.78;100344.81;5053317;28;20051;-75
2023/08/21 09:33:23;;;;;;;11.93;3.10;;;;;;;37.90;86.33;100318.41;5052420;28;20029;-73
2023/08/21 09:35:52;;;;;;;7.10;2.65;;;;;;;38.63;86.35;100343.56;5051372;28;20032;-75
2023/08/21 09:38:19;;;;;;;5.43;2.63;;;;;;;37.82;87.28;100377.91;5033090;28;20389;-74
2023/08/21 09:40:51;;;;;;;6.72;2.50;;;;;;;38.42;85.01;100357.19;5051512;28;20147;-75
2023/08/21 09:43:16;;;;;;;6.05;2.80;;;;;;;37.78;83.73;100371.38;5051389;28;20043;-72
2023/08/21 09:45:46;;;;;;;6.32;2.78;;;;;;;38.46;85.17;100295.41;5050949;28;20029;-74
2023/08/21 09:48:13;;;;;;;5.90;2.25;;;;;;;38.43;81.81;100341.03;5050650;28;20037;-71
2023/08/21 09:50:40;;;;;;;9.68;2.78;;;;;;;38.15;81.99;100304.16;5051080;28;20025;-75
2023/08/21 09:53:06;;;;;;;9.43;2.60;;;;;;;38.16;79.80;100353.66;5051396;28;20029;-77
2023/08/21 09:55:32;;;;;;;4.43;3.17;;;;;;;38.30;82.36;100261.38;5051297;28;20028;-74
2023/08/21 09:58:02;;;;;;;5.82;3.15;;;;;;;38.08;81.31;100313.19;5051029;28;20036;-75
2023/08/21 10:00:37;;;;;;;7.53;2.60;;;;;;;38.50;79.16;100296.59;5051274;28;20064;-77
2023/08/21 10:03:07;;;;;;;4.78;2.75;;;;;;;37.74;78.52;100310.88;5028798;28;20278;-78
2023/08/21 10:05:34;;;;;;;6.82;3.08;;;;;;;38.31;79.20;100339.28;5051575;28;20036;-76
2023/08/21 10:08:05;;;;;;;6.30;3.08;;;;;;;38.00;80.23;100359.44;5034225;28;20182;-78
2023/08/21 10:10:32;;;;;;;7.53;2.90;;;;;;;37.51;78.97;100302.59;5051831;28;20055;-76
2023/08/21 10:12:59;;;;;;;4.68;2.88;;;;;;;37.74;80.48;100356.84;5051918;28;20029;-76
2023/08/21 10:15:25;;;;;;;4.82;2.95;;;;;;;37.99;82.71;100315.28;5033659;28;20031;-75
2023/08/21 10:17:50;;;;;;;4.10;3.00;;;;;;;37.97;78.77;100359.06;5051628;28;20021;-73
2023/08/21 10:20:24;;;;;;;6.55;2.95;;;;;;;38.31;80.66;100302.06;5051895;28;20557;-75
2023/08/21 10:22:54;;;;;;;6.75;3.03;;;;;;;37.58;79.26;100311.38;5052042;28;20033;-75
2023/08/21 10:25:22;;;;;;;6.95;3.10;;;;;;;39.20;80.26;100314.06;5051632;28;20033;-74
2023/08/21 10:27:52;;;;;;;10.88;3.00;;;;;;;39.17;80.64;100319.81;5053602;28;20044;-74
2023/08/21 10:30:22;;;;;;;7.57;3.33;;;;;;;38.58;79.13;100320.28;5055350;28;20025;-75
2023/08/21 10:32:49;;;;;;;10.70;4.10;;;;;;;38.39;76.26;100272.56;5055332;28;20123;-78
2023/08/21 10:35:18;;;;;;;5.75;3.22;;;;;;;38.73;75.55;100323.44;5037940;28;20033;-78
2023/08/21 10:38:08;;;;;;;6.50;3.33;;;;;;;37.87;76.60;100358.69;5037479;28;20036;-77
2023/08/21 10:40:38;;;;;;;6.30;3.22;;;;;;;38.32;77.18;100341.72;5054653;28;20025;-76
2023/08/21 10:43:23;;;;;;;5.57;3.47;;;;;;;38.55;74.62;100311.91;5054982;28;20025;-78
2023/08/21 10:45:55;;;;;;;10.25;3.30;;;;;;;38.80;75.04;100297.63;5036907;28;20029;-76
2023/08/21 10:48:21;;;;;;;5.30;3.20;;;;;;;38.02;75.32;100290.13;5054959;28;20021;-77
2023/08/21 10:50:47;;;;;;;4.60;3.35;;;;;;;38.13;76.50;100316.84;5054924;28;20159;-78
2023/08/21 10:53:13;;;;;;;7.18;3.80;;;;;;;39.62;77.93;100241.28;5054069;28;20036;-79
2023/08/21 10:55:38;;;;;;;6.82;3.35;;;;;;;39.07;78.13;100319.47;5054781;28;20055;-77
2023/08/21 10:58:04;;;;;;;6.05;3.60;;;;;;;38.84;79.91;100282.84;5036730;28;20061;-73
2023/08/21 11:00:29;;;;;;;8.82;3.20;;;;;;;38.73;81.16;100346.56;5053954;28;20488;-73
2023/08/21 11:02:55;;;;;;;5.30;3.25;;;;;;;38.17;82.89;100304.75;5054543;28;20021;-72
2023/08/21 11:05:20;;;;;;;8.80;3.47;;;;;;;38.33;79.20;100338.03;5054483;28;20029;-75
2023/08/21 11:07:47;;;;;;;7.95;3.75;;;;;;;37.58;81.65;100320.13;5053825;28;20025;-73
2023/08/21 11:10:17;;;;;;;12.10;3.88;;;;;;;37.53;81.62;100383.69;5054261;28;20143;-74
2023/08/21 11:12:51;;;;;;;8.25;3.65;;;;;;;37.52;82.55;100358.13;5054157;28;20518;-74